Time;durP1;ratioP1;P1;durP2;ratioP2;P2;SDS_P1;SDS_P2;PMS_P1;PMS_P2;Temp;Humidity;BMP_temperature;BMP_pressure;BME280_temperature;BME280_humidity;BME280_pressure;Samples;Min_cycle;Max_cycle;Signal;HPM_P1;HPM_P2
2024/01/18 00:00:15;;;;;;;0.00;0.00;;;;;;;7.04;100.00;93581.00;1024476;28;20016;-72
2024/01/18 00:00:45;;;;;;;0.00;0.00;;;;;;;7.07;100.00;93580.41;1027569;28;20023;-71
2024/01/18 00:01:15;;;;;;;0.00;0.00;;;;;;;7.08;100.00;93587.19;1027428;28;20023;-71
2024/01/18 00:01:52;;;;;;;0.00;0.00;;;;;;;7.03;100.00;93571.66;1028269;28;20366;-72
2024/01/18 00:02:22;;;;;;;0.00;0.00;;;;;;;7.06;100.00;93578.88;1021387;28;20147;-72
2024/01/18 00:02:53;;;;;;;0.00;0.00;;;;;;;7.03;100.00;93572.41;1026306;28;20554;-72
2024/01/18 00:03:23;;;;;;;0.00;0.00;;;;;;;7.00;100.00;93570.38;1019605;29;20046;-72
2024/01/18 00:03:54;;;;;;;0.00;0.00;;;;;;;7.00;100.00;93580.81;1019590;29;20031;-73
2024/01/18 00:04:24;;;;;;;0.25;0.25;;;;;;;6.99;100.00;93571.47;1019890;29;20063;-73
2024/01/18 00:04:55;;;;;;;0.00;0.00;;;;;;;6.99;100.00;93575.91;1019705;29;20019;-72
2024/01/18 00:05:25;;;;;;;0.00;0.00;;;;;;;6.96;100.00;93576.50;1023478;28;20558;-72
2024/01/18 00:05:56;;;;;;;0.00;0.00;;;;;;;6.91;100.00;93566.16;1027968;28;20470;-71
2024/01/18 00:06:27;;;;;;;0.00;0.00;;;;;;;6.99;100.00;93570.69;1030393;28;20030;-73
2024/01/18 00:06:57;;;;;;;0.00;0.00;;;;;;;7.01;100.00;93590.22;1027927;28;20026;-73
2024/01/18 00:07:29;;;;;;;0.00;0.00;;;;;;;6.91;100.00;93563.56;1023305;29;20031;-73
2024/01/18 00:07:59;;;;;;;0.15;0.15;;;;;;;6.92;100.00;93560.66;1019480;29;20114;-72
2024/01/18 00:08:30;;;;;;;0.00;0.00;;;;;;;6.97;100.00;93578.78;1023054;29;20019;-73
2024/01/18 00:09:00;;;;;;;0.00;0.00;;;;;;;6.96;100.00;93576.50;1019574;29;20039;-73
2024/01/18 00:09:31;;;;;;;0.00;0.00;;;;;;;6.94;100.00;93578.59;1023447;28;20082;-74
2024/01/18 00:10:01;;;;;;;0.05;0.05;;;;;;;6.93;100.00;93577.06;1027689;28;20590;-72
2024/01/18 00:10:32;;;;;;;0.00;0.00;;;;;;;6.90;100.00;93577.66;1019370;29;20024;-72
2024/01/18 00:11:02;;;;;;;0.00;0.00;;;;;;;6.88;100.00;93579.81;1019730;29;20048;-73
2024/01/18 00:11:33;;;;;;;0.00;0.00;;;;;;;6.88;100.00;93579.81;1022313;28;20027;-72
2024/01/18 00:12:04;;;;;;;0.00;0.00;;;;;;;6.89;100.00;93582.09;1019578;29;20048;-72
2024/01/18 00:12:36;;;;;;;0.00;0.00;;;;;;;6.92;100.00;93588.56;1023736;29;20027;-72
2024/01/18 00:13:07;;;;;;;0.00;0.00;;;;;;;6.85;100.00;93575.94;1020075;28;20023;-73
2024/01/18 00:13:37;;;;;;;0.00;0.00;;;;;;;6.87;100.00;93573.03;1020287;28;20050;-73
2024/01/18 00:14:08;;;;;;;0.47;0.47;;;;;;;6.76;100.00;93570.63;1023767;29;20128;-72
2024/01/18 00:14:38;;;;;;;0.00;0.00;;;;;;;6.85;100.00;93581.16;1027278;28;20047;-72
2024/01/18 00:15:09;;;;;;;0.00;0.00;;;;;;;6.80;100.00;93578.63;1019829;29;20032;-72
2024/01/18 00:15:39;;;;;;;0.08;0.08;;;;;;;6.81;100.00;93575.75;1015620;29;20608;-72
2024/01/18 00:16:10;;;;;;;0.00;0.00;;;;;;;6.85;100.00;93581.16;1015659;29;20028;-72
2024/01/18 00:16:40;;;;;;;0.00;0.00;;;;;;;6.85;100.00;93587.13;1019945;28;20111;-72
2024/01/18 00:17:11;;;;;;;0.00;0.00;;;;;;;6.90;100.00;93586.25;1019674;29;20500;-73
2024/01/18 00:17:41;;;;;;;0.00;0.00;;;;;;;6.91;100.00;93576.59;1023464;28;20019;-71
2024/01/18 00:18:12;;;;;;;0.00;0.00;;;;;;;6.88;100.00;93582.41;1026960;28;20030;-72
2024/01/18 00:18:42;;;;;;;0.00;0.00;;;;;;;6.92;100.00;93575.53;1023584;28;20035;-73
2024/01/18 00:19:13;;;;;;;0.00;0.00;;;;;;;6.92;100.00;93586.72;1022578;28;20031;-71
2024/01/18 00:19:43;;;;;;;0.00;0.00;;;;;;;6.90;100.00;93599.28;1016281;29;20579;-74
2024/01/18 00:20:14;;;;;;;0.00;0.00;;;;;;;6.81;100.00;93557.50;1019529;28;20577;-73
2024/01/18 00:20:44;;;;;;;0.00;0.00;;;;;;;6.94;100.00;93589.84;1019816;29;20119;-73
2024/01/18 00:21:15;;;;;;;0.65;0.65;;;;;;;6.90;100.00;93588.09;1022193;28;20138;-72
2024/01/18 00:21:46;;;;;;;0.00;0.00;;;;;;;6.83;100.00;93589.25;1021587;28;20098;-72
2024/01/18 00:22:16;;;;;;;0.00;0.00;;;;;;;6.81;100.00;93580.97;1016712;28;20516;-72
2024/01/18 00:22:47;;;;;;;0.00;0.00;;;;;;;6.79;100.00;93590.13;1027478;28;20043;-72
2024/01/18 00:23:17;;;;;;;0.00;0.00;;;;;;;6.92;100.00;93586.72;1023106;28;20023;-72
2024/01/18 00:23:48;;;;;;;0.00;0.00;;;;;;;6.91;100.00;93589.63;1015374;29;20039;-72
2024/01/18 00:24:18;;;;;;;0.00;0.00;;;;;;;6.92;100.00;93591.19;1015336;29;20024;-72
2024/01/18 00:24:49;;;;;;;0.00;0.00;;;;;;;6.93;100.00;93592.72;1023610;28;20494;-73
2024/01/18 00:25:20;;;;;;;0.08;0.08;;;;;;;6.92;100.00;93591.94;1027417;28;20032;-72
2024/01/18 00:25:51;;;;;;;0.00;0.00;;;;;;;6.82;100.00;93587.72;1031244;28;20026;-74
2024/01/18 00:26:21;;;;;;;0.00;0.00;;;;;;;6.94;100.00;93578.59;1027139;28;20042;-72
2024/01/18 00:26:51;;;;;;;0.00;0.00;;;;;;;6.87;100.00;93586.06;1023354;29;20027;-73
2024/01/18 00:27:22;;;;;;;0.00;0.00;;;;;;;6.88;100.00;93590.22;1019314;29;20024;-72
2024/01/18 00:27:52;;;;;;;0.10;0.10;;;;;;;6.82;100.00;93587.72;1019507;28;20414;-72
2024/01/18 00:28:23;;;;;;;0.03;0.00;;;;;;;6.83;100.00;93589.25;1018972;29;20028;-73
2024/01/18 00:28:53;;;;;;;0.00;0.00;;;;;;;6.82;100.00;93581.72;1019782;28;20591;-72
2024/01/18 00:29:24;;;;;;;0.00;0.00;;;;;;;6.83;100.00;93588.47;1023169;29;20034;-72
2024/01/18 00:29:54;;;;;;;0.57;0.57;;;;;;;6.87;100.00;93588.66;1019297;28;20019;-73
2024/01/18 00:30:25;;;;;;;0.00;0.00;;;;;;;6.85;100.00;93581.91;1027730;28;20058;-74
2024/01/18 00:30:55;;;;;;;0.43;0.43;;;;;;;6.88;100.00;93585.00;1023350;28;20031;-73
2024/01/18 00:31:26;;;;;;;0.08;0.08;;;;;;;6.80;100.00;93584.63;1023762;28;20027;-71
2024/01/18 00:31:56;;;;;;;0.00;0.00;;;;;;;6.77;100.00;93585.22;1026953;28;20023;-71
2024/01/18 00:32:26;;;;;;;1.25;0.10;;;;;;;6.76;100.00;93583.66;1027604;28;20042;-71
2024/01/18 00:32:57;;;;;;;0.00;0.00;;;;;;;6.76;100.00;93578.44;1027478;28;20022;-73
2024/01/18 00:33:27;;;;;;;0.00;0.00;;;;;;;6.74;100.00;93580.59;1032486;28;20298;-72
2024/01/18 00:33:58;;;;;;;0.00;0.00;;;;;;;6.77;100.00;93582.63;1023299;28;20106;-72
2024/01/18 00:34:28;;;;;;;0.00;0.00;;;;;;;6.73;100.00;93573.03;1015588;29;20032;-72
2024/01/18 00:34:59;;;;;;;0.00;0.00;;;;;;;6.73;100.00;93581.63;1015407;29;20028;-73
2024/01/18 00:35:29;;;;;;;0.00;0.00;;;;;;;6.74;100.00;93585.00;1019387;29;20031;-72
2024/01/18 00:36:00;;;;;;;0.00;0.00;;;;;;;6.70;100.00;93584.06;1015341;29;20483;-71
2024/01/18 00:36:30;;;;;;;0.00;0.00;;;;;;;6.72;100.00;93577.50;1020742;29;20040;-72
2024/01/18 00:37:01;;;;;;;0.20;0.10;;;;;;;6.71;100.00;93583.78;1019447;29;20028;-72
2024/01/18 00:37:31;;;;;;;0.00;0.00;;;;;;;6.70;100.00;93584.81;1026161;28;20706;-72
2024/01/18 00:38:02;;;;;;;0.00;0.00;;;;;;;6.66;100.00;93577.88;1027107;28;20019;-71
2024/01/18 00:38:33;;;;;;;0.45;0.15;;;;;;;6.66;100.00;93583.88;1022849;29;20046;-71
2024/01/18 00:39:09;;;;;;;0.00;0.00;;;;;;;6.64;100.00;93583.41;1023196;29;20038;-72
2024/01/18 00:39:42;;;;;;;0.00;0.00;;;;;;;6.60;100.00;93574.59;1024244;28;20352;-73
2024/01/18 00:40:16;;;;;;;0.45;0.45;;;;;;;6.58;100.00;93576.75;1016187;29;20534;-73
2024/01/18 00:40:46;;;;;;;0.00;0.00;;;;;;;6.64;100.00;93586.00;1024291;28;20028;-71
2024/01/18 00:41:17;;;;;;;0.00;0.00;;;;;;;6.59;100.00;93570.47;1027849;28;20031;-72
2024/01/18 00:41:47;;;;;;;0.00;0.00;;;;;;;6.65;100.00;93590.16;1027445;28;20189;-73
2024/01/18 00:42:18;;;;;;;0.05;0.05;;;;;;;6.66;100.00;93588.31;1023555;29;20411;-72
2024/01/18 00:42:48;;;;;;;0.00;0.00;;;;;;;6.59;100.00;93583.47;1023238;29;20042;-73
2024/01/18 00:43:19;;;;;;;0.00;0.00;;;;;;;6.60;100.00;93591.00;1023176;28;20031;-71
2024/01/18 00:43:49;;;;;;;0.00;0.00;;;;;;;6.57;100.00;93590.81;1027250;28;20038;-73
2024/01/18 00:44:19;;;;;;;0.00;0.00;;;;;;;6.56;100.00;93584.81;1027422;28;20026;-73
2024/01/18 00:44:50;;;;;;;0.00;0.00;;;;;;;6.63;100.00;93589.66;1023291;28;20386;-72
2024/01/18 00:45:20;;;;;;;0.00;0.00;;;;;;;6.69;100.00;93598.91;1030670;28;20030;-71
2024/01/18 00:45:51;;;;;;;5.03;0.17;;;;;;;6.59;100.00;93584.25;1023430;28;20071;-72
2024/01/18 00:46:21;;;;;;;0.00;0.00;;;;;;;6.70;100.00;93597.09;1023306;28;20031;-74
2024/01/18 00:46:52;;;;;;;0.00;0.00;;;;;;;6.71;100.00;93589.00;1022898;28;20027;-71
2024/01/18 00:47:22;;;;;;;0.00;0.00;;;;;;;6.68;100.00;93592.16;1026508;28;20042;-72
2024/01/18 00:47:53;;;;;;;0.00;0.00;;;;;;;6.66;100.00;93589.06;1023284;28;20074;-72
2024/01/18 00:48:23;;;;;;;0.10;0.10;;;;;;;6.62;100.00;93588.13;1022433;28;20023;-73
2024/01/18 00:48:54;;;;;;;0.00;0.00;;;;;;;6.67;100.00;93595.06;1021272;29;20052;-71
2024/01/18 00:49:24;;;;;;;0.00;0.00;;;;;;;6.71;100.00;93601.25;1019508;29;20027;-72
2024/01/18 00:49:54;;;;;;;0.00;0.00;;;;;;;6.69;100.00;93598.91;1019444;29;20027;-72
2024/01/18 00:50:25;;;;;;;0.35;0.00;;;;;;;6.65;100.00;93605.78;1019203;28;20900;-72
2024/01/18 00:50:56;;;;;;;0.00;0.00;;;;;;;6.73;100.00;93597.28;1023836;28;20066;-72
2024/01/18 00:51:26;;;;;;;0.00;0.00;;;;;;;6.71;100.00;93599.41;1023389;28;20027;-72
2024/01/18 00:51:57;;;;;;;0.00;0.00;;;;;;;6.67;100.00;93597.66;1020379;29;20395;-71
2024/01/18 00:52:27;;;;;;;0.00;0.00;;;;;;;6.71;100.00;93603.84;1021270;29;20028;-73
2024/01/18 00:52:58;;;;;;;0.00;0.00;;;;;;;6.67;100.00;93600.25;1023583;28;20034;-72
2024/01/18 00:53:29;;;;;;;0.00;0.00;;;;;;;6.59;100.00;93601.72;1027426;28;20023;-72
2024/01/18 00:54:02;;;;;;;0.00;0.00;;;;;;;6.63;100.00;93601.91;1031329;28;20383;-71
2024/01/18 00:54:33;;;;;;;0.00;0.00;;;;;;;6.61;100.00;93591.78;1019585;29;20034;-72
2024/01/18 00:55:04;;;;;;;0.00;0.00;;;;;;;6.54;100.00;93571.34;1015259;29;20031;-72
2024/01/18 00:55:34;;;;;;;0.00;0.00;;;;;;;6.68;100.00;93594.00;1012700;29;20092;-72
2024/01/18 00:56:09;;;;;;;0.00;0.00;;;;;;;6.64;100.00;93596.44;1019513;29;20078;-72
2024/01/18 00:56:40;;;;;;;0.00;0.00;;;;;;;6.62;100.00;93603.75;1023952;28;20030;-72
2024/01/18 00:57:10;;;;;;;0.00;0.00;;;;;;;6.64;100.00;93606.84;1027338;28;20054;-72
2024/01/18 00:57:41;;;;;;;0.00;0.00;;;;;;;6.66;100.00;93602.09;1023299;28;20039;-70
2024/01/18 00:58:13;;;;;;;0.43;0.10;;;;;;;6.65;100.00;93608.38;1019534;29;20027;-72
2024/01/18 00:58:44;;;;;;;0.00;0.00;;;;;;;6.61;100.00;93602.22;1019832;29;20123;-72
2024/01/18 00:59:15;;;;;;;0.00;0.00;;;;;;;6.63;100.00;93602.69;1019802;29;20373;-71
2024/01/18 00:59:45;;;;;;;0.00;0.00;;;;;;;6.64;100.00;93608.66;1022823;28;20074;-72
2024/01/18 01:00:16;;;;;;;0.10;0.10;;;;;;;6.66;100.00;93609.91;1023057;28;20851;-72
2024/01/18 01:00:47;;;;;;;0.00;0.00;;;;;;;6.65;100.00;93603.16;1019399;28;20502;-71
2024/01/18 01:01:17;;;;;;;0.52;0.52;;;;;;;6.56;100.00;93602.28;1026981;28;20015;-71
2024/01/18 01:01:48;;;;;;;0.00;0.00;;;;;;;6.60;100.00;93609.22;1031328;28;20798;-72
2024/01/18 01:02:20;;;;;;;0.00;0.00;;;;;;;6.52;100.00;93599.50;1031012;28;20034;-72
2024/01/18 01:02:51;;;;;;;0.00;0.00;;;;;;;6.56;100.00;93603.06;1032278;28;20034;-71
2024/01/18 01:03:21;;;;;;;0.00;0.00;;;;;;;6.33;100.00;93570.94;1026991;28;20038;-72
2024/01/18 01:03:52;;;;;;;0.00;0.00;;;;;;;6.55;100.00;93608.59;1019344;29;20042;-72
2024/01/18 01:04:22;;;;;;;0.00;0.00;;;;;;;6.56;100.00;93603.06;1019320;29;20035;-72
2024/01/18 01:04:53;;;;;;;0.00;0.00;;;;;;;6.59;100.00;93614.75;1018728;29;20032;-72
2024/01/18 01:05:23;;;;;;;0.00;0.00;;;;;;;6.59;100.00;93609.53;1023338;28;20031;-71
2024/01/18 01:05:53;;;;;;;0.00;0.00;;;;;;;6.58;100.00;93613.97;1027504;28;20035;-72
2024/01/18 01:06:24;;;;;;;0.00;0.00;;;;;;;6.61;100.00;93608.19;1029528;28;20486;-72
2024/01/18 01:06:54;;;;;;;0.00;0.00;;;;;;;6.58;100.00;93597.59;1035302;28;20030;-71
2024/01/18 01:07:25;;;;;;;0.00;0.00;;;;;;;6.45;100.00;93590.53;1026792;28;20019;-71
2024/01/18 01:07:55;;;;;;;0.10;0.10;;;;;;;6.59;100.00;93609.53;1030948;28;20034;-72
2024/01/18 01:08:26;;;;;;;0.00;0.00;;;;;;;6.48;100.00;93576.94;1026668;28;20098;-72
2024/01/18 01:08:59;;;;;;;0.00;0.00;;;;;;;6.63;100.00;93610.50;1015034;29;20107;-72
2024/01/18 01:09:30;;;;;;;0.00;0.00;;;;;;;6.62;100.00;93614.16;1015106;29;20448;-73
2024/01/18 01:10:00;;;;;;;0.00;0.00;;;;;;;6.58;100.00;93613.22;1016414;29;20031;-71
2024/01/18 01:10:31;;;;;;;0.00;0.00;;;;;;;6.67;100.00;93613.28;1020618;28;20030;-72
2024/01/18 01:11:10;;;;;;;0.00;0.00;;;;;;;6.66;100.00;93616.97;1031225;28;20022;-71
2024/01/18 01:11:41;;;;;;;0.00;0.00;;;;;;;6.61;100.00;93616.00;1030929;28;20109;-72
2024/01/18 01:12:11;;;;;;;0.00;0.00;;;;;;;6.59;100.00;93622.56;1027052;28;20391;-71
2024/01/18 01:12:42;;;;;;;0.00;0.00;;;;;;;6.63;100.00;93620.16;1023392;29;20035;-74
2024/01/18 01:13:12;;;;;;;0.00;0.00;;;;;;;6.69;100.00;93624.22;1020244;29;20868;-72
2024/01/18 01:13:44;;;;;;;0.00;0.00;;;;;;;6.62;100.00;93616.78;1018973;29;20401;-72
2024/01/18 01:14:15;;;;;;;0.00;0.00;;;;;;;6.65;100.00;93624.03;1015891;29;20039;-72
2024/01/18 01:14:45;;;;;;;0.00;0.00;;;;;;;6.65;100.00;93616.19;1020394;28;20504;-71
2024/01/18 01:15:15;;;;;;;0.00;0.00;;;;;;;6.62;100.00;93616.78;1019357;29;20031;-71
2024/01/18 01:15:47;;;;;;;0.00;0.00;;;;;;;6.58;100.00;93611.38;1015227;29;20032;-71
2024/01/18 01:16:17;;;;;;;0.32;0.05;;;;;;;6.60;100.00;93616.28;1015122;29;20035;-72
2024/01/18 01:16:47;;;;;;;0.00;0.00;;;;;;;6.60;100.00;93617.06;1023108;28;20027;-72
2024/01/18 01:17:18;;;;;;;0.00;0.00;;;;;;;6.63;100.00;93622.75;1019214;29;20023;-72
2024/01/18 01:17:48;;;;;;;0.00;0.00;;;;;;;6.67;100.00;93619.28;1019551;29;20067;-71
2024/01/18 01:18:19;;;;;;;0.00;0.00;;;;;;;6.65;100.00;93618.81;1016894;29;20032;-73
2024/01/18 01:18:49;;;;;;;0.00;0.00;;;;;;;6.65;100.00;93629.22;1019113;29;20032;-72
2024/01/18 01:19:20;;;;;;;0.00;0.00;;;;;;;6.70;100.00;93618.69;1018938;29;20032;-74
2024/01/18 01:19:50;;;;;;;0.00;0.00;;;;;;;6.65;100.00;93620.66;1019263;29;20032;-73
2024/01/18 01:20:21;;;;;;;0.00;0.00;;;;;;;6.49;100.00;93592.25;1019277;29;20582;-72
2024/01/18 01:20:51;;;;;;;0.00;0.00;;;;;;;6.65;100.00;93621.41;1019611;29;20058;-72
2024/01/18 01:21:21;;;;;;;0.00;0.00;;;;;;;6.66;100.00;93624.78;1023025;29;20042;-71
2024/01/18 01:21:52;;;;;;;0.00;0.00;;;;;;;6.58;100.00;93613.22;1023025;29;20031;-73
2024/01/18 01:22:22;;;;;;;0.25;0.25;;;;;;;6.62;100.00;93611.56;1019048;28;20032;-71
2024/01/18 01:22:53;;;;;;;0.00;0.00;;;;;;;6.58;100.00;93613.97;1027106;28;20109;-71
2024/01/18 01:23:23;;;;;;;0.00;0.00;;;;;;;6.60;100.00;93618.88;1025024;28;20660;-72
2024/01/18 01:23:56;;;;;;;0.00;0.00;;;;;;;6.63;100.00;93620.16;1019161;29;20024;-72
2024/01/18 01:24:26;;;;;;;0.47;0.20;;;;;;;6.66;100.00;93620.34;1023457;29;20036;-72
2024/01/18 01:24:57;;;;;;;0.00;0.00;;;;;;;6.53;100.00;93595.06;1020009;28;20032;-70
2024/01/18 01:25:27;;;;;;;0.00;0.00;;;;;;;6.65;100.00;93620.66;1024030;28;20024;-72
2024/01/18 01:25:58;;;;;;;0.00;0.00;;;;;;;6.63;100.00;93614.94;1031070;28;20478;-72
2024/01/18 01:26:29;;;;;;;0.00;0.00;;;;;;;6.63;100.00;93615.72;1023060;28;20108;-72
2024/01/18 01:26:59;;;;;;;0.05;0.05;;;;;;;6.61;100.00;93617.84;1023019;28;20574;-73
2024/01/18 01:27:30;;;;;;;0.00;0.00;;;;;;;6.58;100.00;93613.22;1027251;28;20034;-72
2024/01/18 01:28:00;;;;;;;0.00;0.00;;;;;;;6.64;100.00;93624.28;1022770;28;20039;-72
2024/01/18 01:28:30;;;;;;;0.00;0.00;;;;;;;6.63;100.00;93615.72;1026493;28;20037;-72
2024/01/18 01:29:01;;;;;;;0.00;0.00;;;;;;;6.61;100.00;93623.06;1026999;28;20761;-72
2024/01/18 01:29:32;;;;;;;0.00;0.00;;;;;;;6.57;100.00;93614.25;1018914;29;20427;-72
2024/01/18 01:30:02;;;;;;;0.00;0.00;;;;;;;6.60;100.00;93618.88;1018941;29;20039;-72
2024/01/18 01:30:33;;;;;;;0.00;0.00;;;;;;;6.57;100.00;93622.88;1019275;29;20028;-71
2024/01/18 01:31:03;;;;;;;0.00;0.00;;;;;;;6.63;100.00;93614.94;1023370;28;20027;-72
2024/01/18 01:31:34;;;;;;;0.00;0.00;;;;;;;6.63;100.00;93625.38;1031325;28;20035;-71
2024/01/18 01:32:05;;;;;;;0.00;0.00;;;;;;;6.57;100.00;93614.25;1034527;28;20133;-72
2024/01/18 01:32:35;;;;;;;0.00;0.00;;;;;;;6.59;100.00;93620.72;1027017;28;20079;-72
2024/01/18 01:33:06;;;;;;;0.10;0.10;;;;;;;6.60;100.00;93624.09;1027561;28;20644;-72
2024/01/18 01:33:36;;;;;;;0.30;0.30;;;;;;;6.47;100.00;93601.41;1031119;28;20030;-73
2024/01/18 01:34:07;;;;;;;0.00;0.00;;;;;;;6.56;100.00;93617.94;1031415;28;20038;-72
2024/01/18 01:34:37;;;;;;;0.00;0.00;;;;;;;6.61;100.00;93621.22;1031126;28;20026;-72
2024/01/18 01:35:08;;;;;;;0.00;0.00;;;;;;;6.54;100.00;93610.41;1026916;28;20027;-72
2024/01/18 01:35:38;;;;;;;0.00;0.00;;;;;;;6.53;100.00;93611.47;1023387;29;20035;-73
2024/01/18 01:36:08;;;;;;;0.00;0.00;;;;;;;6.55;100.00;93613.78;1019222;29;20035;-72
2024/01/18 01:36:39;;;;;;;0.32;0.25;;;;;;;6.56;100.00;93615.31;1019120;29;20575;-72
2024/01/18 01:37:09;;;;;;;0.00;0.00;;;;;;;6.60;100.00;93611.84;1018802;29;20046;-73
2024/01/18 01:37:40;;;;;;;0.00;0.00;;;;;;;6.58;100.00;93608.78;1023526;28;20031;-72
2024/01/18 01:38:10;;;;;;;0.00;0.00;;;;;;;6.62;100.00;93619.38;1027525;28;20038;-74
2024/01/18 01:38:41;;;;;;;0.00;0.00;;;;;;;6.62;100.00;93614.16;1025863;28;20035;-72
2024/01/18 01:39:11;;;;;;;0.00;0.00;;;;;;;6.48;100.00;93598.53;1027994;28;20019;-73
2024/01/18 01:39:42;;;;;;;0.00;0.00;;;;;;;6.62;100.00;93614.16;1027927;28;20033;-71
2024/01/18 01:40:12;;;;;;;0.00;0.00;;;;;;;6.63;100.00;93615.72;1023687;28;20517;-71
2024/01/18 01:40:43;;;;;;;0.00;0.00;;;;;;;6.60;100.00;93611.06;1023700;29;20483;-73
2024/01/18 01:41:14;;;;;;;0.00;0.00;;;;;;;6.65;100.00;93616.19;1020355;29;20020;-72
2024/01/18 01:41:44;;;;;;;0.00;0.00;;;;;;;6.62;100.00;93616.78;1015937;29;20114;-73
2024/01/18 01:42:15;;;;;;;0.00;0.00;;;;;;;6.66;100.00;93620.34;1018992;29;20023;-74
2024/01/18 01:42:45;;;;;;;0.00;0.00;;;;;;;6.67;100.00;93615.91;1019924;28;20027;-72
2024/01/18 01:43:17;;;;;;;0.00;0.00;;;;;;;6.61;100.00;93612.63;1028231;28;20505;-71
2024/01/18 01:43:59;;;;;;;0.00;0.00;;;;;;;6.59;100.00;93606.94;1026193;28;20579;-73
2024/01/18 01:44:30;;;;;;;0.00;0.00;;;;;;;6.64;100.00;93614.66;1015944;29;20028;-71
2024/01/18 01:45:00;;;;;;;0.00;0.00;;;;;;;6.62;100.00;93614.16;1012324;29;20630;-72
2024/01/18 01:45:31;;;;;;;0.00;0.00;;;;;;;6.61;100.00;93615.25;1018131;29;20028;-71
2024/01/18 01:46:01;;;;;;;0.00;0.00;;;;;;;6.58;100.00;93611.38;1023746;28;20078;-71
2024/01/18 01:46:32;;;;;;;0.00;0.00;;;;;;;6.53;100.00;93616.66;1023993;29;20071;-72
2024/01/18 01:47:03;;;;;;;0.00;0.00;;;;;;;6.57;100.00;93617.66;1019883;29;20086;-73
2024/01/18 01:47:33;;;;;;;0.00;0.00;;;;;;;6.58;100.00;93618.44;1020173;28;20036;-72
2024/01/18 01:48:04;;;;;;;0.00;0.00;;;;;;;6.47;100.00;93596.22;1024149;28;20129;-73
2024/01/18 01:48:35;;;;;;;0.00;0.00;;;;;;;6.53;100.00;93610.69;1023741;29;20042;-72
2024/01/18 01:49:05;;;;;;;0.00;0.00;;;;;;;6.55;100.00;93613.78;1020226;29;20012;-70
2024/01/18 01:49:36;;;;;;;0.00;0.00;;;;;;;6.57;100.00;93611.66;1020113;29;20135;-72
2024/01/18 01:50:08;;;;;;;0.00;0.00;;;;;;;6.52;100.00;93614.38;1016554;29;20048;-72
2024/01/18 01:50:38;;;;;;;0.00;0.00;;;;;;;6.37;100.00;93597.97;1020812;28;20020;-74
2024/01/18 01:51:09;;;;;;;0.00;0.00;;;;;;;6.57;100.00;93616.88;1020666;28;20024;-72
2024/01/18 01:51:48;;;;;;;0.00;0.00;;;;;;;6.54;100.00;93623.44;1020070;29;20032;-72
2024/01/18 01:52:19;;;;;;;0.00;0.00;;;;;;;6.38;100.00;93594.28;1020418;29;20027;-71
2024/01/18 01:52:50;;;;;;;0.00;0.00;;;;;;;6.51;100.00;93618.03;1020080;29;20559;-72
2024/01/18 01:53:20;;;;;;;0.00;0.00;;;;;;;6.49;100.00;93609.72;1021234;29;20031;-72
2024/01/18 01:53:52;;;;;;;0.00;0.00;;;;;;;6.48;100.00;93618.63;1023810;28;20435;-72
2024/01/18 01:54:28;;;;;;;0.00;0.00;;;;;;;6.45;100.00;93613.97;1019801;28;20102;-71
2024/01/18 01:54:59;;;;;;;0.00;0.00;;;;;;;6.49;100.00;93613.09;1024139;29;20019;-72
2024/01/18 01:55:29;;;;;;;6.68;0.28;;;;;;;6.42;100.00;93609.34;1027710;28;20054;-72
2024/01/18 01:56:00;;;;;;;0.00;0.00;;;;;;;6.48;100.00;93611.56;1023326;29;20023;-72
2024/01/18 01:56:31;;;;;;;0.00;0.00;;;;;;;6.59;100.00;93620.72;1016371;29;20072;-73
2024/01/18 01:57:03;;;;;;;0.00;0.00;;;;;;;6.64;100.00;93614.66;1015845;29;20040;-71
2024/01/18 01:57:34;;;;;;;0.00;0.00;;;;;;;6.58;100.00;93618.44;1016056;29;20084;-72
2024/01/18 01:58:04;;;;;;;0.00;0.00;;;;;;;6.67;100.00;93618.50;1023423;29;20497;-71
2024/01/18 01:58:36;;;;;;;0.00;0.00;;;;;;;6.52;100.00;93594.28;1024036;29;20031;-73
2024/01/18 01:59:08;;;;;;;0.00;0.00;;;;;;;6.67;100.00;93615.91;1020096;29;20091;-74
2024/01/18 01:59:38;;;;;;;0.00;0.00;;;;;;;6.62;100.00;93619.38;1023540;29;22548;-72
2024/01/18 02:00:09;;;;;;;0.00;0.00;;;;;;;6.58;100.00;93608.78;1024671;28;20078;-72
2024/01/18 02:00:40;;;;;;;0.00;0.00;;;;;;;6.58;100.00;93613.97;1019919;29;20030;-72
2024/01/18 02:01:10;;;;;;;0.00;0.00;;;;;;;6.56;100.00;93610.13;1020736;29;20035;-72
2024/01/18 02:01:41;;;;;;;0.05;0.05;;;;;;;6.59;100.00;93604.31;1023877;29;20019;-73
2024/01/18 02:02:11;;;;;;;0.00;0.00;;;;;;;6.55;100.00;93604.13;1020199;29;20024;-71
2024/01/18 02:02:43;;;;;;;0.00;0.00;;;;;;;6.55;100.00;93603.38;1027750;28;20086;-72
2024/01/18 02:03:13;;;;;;;0.00;0.00;;;;;;;6.53;100.00;93605.47;1019599;29;20587;-73
2024/01/18 02:03:43;;;;;;;0.00;0.00;;;;;;;6.57;100.00;93606.44;1023952;29;20030;-72
2024/01/18 02:04:14;;;;;;;0.00;0.00;;;;;;;6.56;100.00;93615.31;1028061;28;20033;-72
2024/01/18 02:04:44;;;;;;;0.00;0.00;;;;;;;6.59;100.00;93609.53;1019933;29;20032;-72
2024/01/18 02:05:15;;;;;;;0.00;0.00;;;;;;;6.52;100.00;93601.34;1015722;29;20031;-73
2024/01/18 02:05:45;;;;;;;0.00;0.00;;;;;;;6.54;100.00;93605.22;1016304;29;20384;-72
2024/01/18 02:06:16;;;;;;;0.00;0.00;;;;;;;6.51;100.00;93612.81;1019665;29;20026;-72
2024/01/18 02:06:46;;;;;;;0.00;0.00;;;;;;;6.54;100.00;93607.03;1024308;29;20591;-71
2024/01/18 02:07:17;;;;;;;0.00;0.00;;;;;;;6.54;100.00;93592.19;1015676;29;20094;-72
2024/01/18 02:07:47;;;;;;;0.00;0.00;;;;;;;6.58;100.00;93608.00;1015948;29;20031;-73
2024/01/18 02:08:17;;;;;;;0.00;0.00;;;;;;;6.57;100.00;93606.44;1021193;29;20035;-73
2024/01/18 02:08:48;;;;;;;0.00;0.00;;;;;;;6.49;100.00;93599.31;1019813;29;20048;-72
2024/01/18 02:09:19;;;;;;;0.00;0.00;;;;;;;6.45;100.00;93600.94;1015743;29;20031;-69
2024/01/18 02:09:49;;;;;;;0.00;0.00;;;;;;;6.54;100.00;93607.03;1023825;29;20029;-73
2024/01/18 02:10:21;;;;;;;0.00;0.00;;;;;;;6.48;100.00;93602.97;1023638;29;20100;-72
2024/01/18 02:10:51;;;;;;;0.00;0.00;;;;;;;6.49;100.00;93604.53;1019865;29;20040;-73
2024/01/18 02:11:22;;;;;;;0.00;0.00;;;;;;;6.51;100.00;93611.00;1020825;29;20615;-72
2024/01/18 02:11:52;;;;;;;0.00;0.00;;;;;;;6.57;100.00;93614.25;1023930;28;20035;-72
2024/01/18 02:12:23;;;;;;;0.00;0.00;;;;;;;6.55;100.00;93606.75;1023990;28;20115;-72
2024/01/18 02:12:54;;;;;;;0.00;0.00;;;;;;;6.57;100.00;93606.44;1027888;28;20602;-71
2024/01/18 02:13:24;;;;;;;0.00;0.00;;;;;;;6.60;100.00;93605.88;1017365;29;20039;-71
2024/01/18 02:13:55;;;;;;;0.00;0.00;;;;;;;6.63;100.00;93615.72;1020064;29;20499;-71
2024/01/18 02:14:25;;;;;;;0.00;0.00;;;;;;;6.61;100.00;93610.03;1019738;29;20032;-73
2024/01/18 02:14:56;;;;;;;0.00;0.00;;;;;;;6.54;100.00;93605.22;1016179;28;20039;-71
2024/01/18 02:15:27;;;;;;;0.00;0.00;;;;;;;6.52;100.00;93601.34;1028190;28;20042;-73
2024/01/18 02:15:57;;;;;;;0.00;0.00;;;;;;;6.55;100.00;93598.16;1027698;28;20019;-72
2024/01/18 02:16:28;;;;;;;0.00;0.00;;;;;;;6.54;100.00;93602.59;1023939;29;20475;-71
2024/01/18 02:16:58;;;;;;;0.20;0.20;;;;;;;6.52;100.00;93603.94;1016057;29;20415;-72
2024/01/18 02:17:29;;;;;;;0.00;0.00;;;;;;;6.53;100.00;93608.09;1018369;29;20092;-72
2024/01/18 02:17:59;;;;;;;0.00;0.00;;;;;;;6.57;100.00;93602.03;1016283;29;20060;-73
2024/01/18 02:18:30;;;;;;;0.00;0.00;;;;;;;6.57;100.00;93602.03;1019239;29;20031;-71
2024/01/18 02:19:02;;;;;;;0.00;0.00;;;;;;;6.56;100.00;93603.06;1024849;28;20031;-72
2024/01/18 02:19:33;;;;;;;0.00;0.00;;;;;;;6.49;100.00;93588.88;1027538;28;20620;-71
2024/01/18 02:20:04;;;;;;;0.00;0.00;;;;;;;6.41;100.00;93592.19;1016863;29;20503;-72
2024/01/18 02:20:35;;;;;;;0.00;0.00;;;;;;;6.51;100.00;93607.63;1020239;29;20039;-71
2024/01/18 02:21:08;;;;;;;0.00;0.00;;;;;;;6.46;100.00;93595.44;1024099;28;20031;-72
2024/01/18 02:21:38;;;;;;;0.00;0.00;;;;;;;6.49;100.00;93596.69;1017640;29;20474;-72
2024/01/18 02:22:09;;;;;;;0.00;0.00;;;;;;;6.50;100.00;93600.84;1023503;29;20034;-72
2024/01/18 02:22:42;;;;;;;0.08;0.08;;;;;;;6.57;100.00;93606.44;1017181;29;20109;-72
2024/01/18 02:23:12;;;;;;;0.00;0.00;;;;;;;6.59;100.00;93609.53;1020678;28;20027;-71
2024/01/18 02:23:46;;;;;;;0.00;0.00;;;;;;;6.48;100.00;93593.34;1024032;29;20031;-72
2024/01/18 02:24:20;;;;;;;0.00;0.00;;;;;;;6.60;100.00;93608.47;1024178;29;20481;-73
2024/01/18 02:24:51;;;;;;;0.00;0.00;;;;;;;6.54;100.00;93600.00;1020280;29;20034;-71
2024/01/18 02:25:24;;;;;;;0.00;0.00;;;;;;;6.50;100.00;93600.84;1017230;29;20055;-72